Time;durP1;ratioP1;P1;durP2;ratioP2;P2;SDS_P1;SDS_P2;PMS_P1;PMS_P2;Temp;Humidity;BMP_temperature;BMP_pressure;BME280_temperature;BME280_humidity;BME280_pressure;Samples;Min_cycle;Max_cycle;Signal;HPM_P1;HPM_P2
2021/08/14 00:01:54;;;;;;;17.15;7.20;;;;;;;17.52;67.62;101293.80;126296;1099;104210;-78
2021/08/14 00:04:24;;;;;;;20.60;7.13;;;;;;;17.50;67.57;101296.42;126302;1099;104146;-78
2021/08/14 00:06:58;;;;;;;16.67;6.93;;;;;;;17.50;67.40;101299.08;126233;1099;104159;-79
2021/08/14 00:09:28;;;;;;;19.48;7.08;;;;;;;17.47;67.77;101306.06;126228;1099;104201;-78
2021/08/14 00:11:59;;;;;;;17.30;6.47;;;;;;;17.46;68.22;101298.98;126296;1099;104139;-78
2021/08/14 00:14:30;;;;;;;18.73;7.20;;;;;;;17.45;67.46;101308.68;126322;1099;104140;-78
2021/08/14 00:17:06;;;;;;;19.70;7.55;;;;;;;17.43;67.93;101298.03;126312;1099;102836;-77
2021/08/14 00:19:37;;;;;;;18.05;8.00;;;;;;;17.42;67.51;101298.92;126276;1099;104146;-78
2021/08/14 00:22:09;;;;;;;19.70;7.73;;;;;;;17.43;68.21;101299.80;126364;1099;104248;-77
2021/08/14 00:24:39;;;;;;;18.00;7.30;;;;;;;17.36;68.04;101292.61;126270;1099;104271;-78
2021/08/14 00:27:10;;;;;;;20.20;7.10;;;;;;;17.33;68.04;101304.04;126329;1099;104146;-78
2021/08/14 00:29:43;;;;;;;19.57;7.10;;;;;;;17.30;68.39;101308.39;126307;1099;104271;-78
2021/08/14 00:32:14;;;;;;;15.53;6.95;;;;;;;17.26;68.44;101302.11;126308;1099;105269;-78
2021/08/14 00:34:48;;;;;;;18.00;6.80;;;;;;;17.20;68.73;101300.24;126366;1099;104149;-77
2021/08/14 00:37:19;;;;;;;17.93;7.17;;;;;;;17.19;68.82;101306.40;126335;1099;104150;-78
2021/08/14 00:39:51;;;;;;;20.60;7.00;;;;;;;17.17;69.00;101310.78;126278;1099;104147;-78
2021/08/14 00:42:21;;;;;;;16.73;6.70;;;;;;;17.15;68.53;101312.48;126330;1099;104964;-77
2021/08/14 00:44:53;;;;;;;17.07;7.00;;;;;;;17.13;68.71;101308.03;126224;1099;104226;-78
2021/08/14 00:47:29;;;;;;;15.67;6.40;;;;;;;17.09;69.11;101311.47;126352;1099;104159;-79
2021/08/14 00:50:00;;;;;;;14.97;6.43;;;;;;;17.05;69.53;101313.16;126270;1099;104258;-77
2021/08/14 00:52:31;;;;;;;15.60;6.43;;;;;;;17.02;68.82;101319.28;126277;1099;104134;-77
2021/08/14 00:55:12;;;;;;;14.70;6.40;;;;;;;17.01;68.93;101314.83;126324;1099;104152;-78
2021/08/14 00:57:44;;;;;;;17.30;6.97;;;;;;;17.00;68.97;101313.06;126306;1099;104185;-77
2021/08/14 01:00:16;;;;;;;21.47;7.47;;;;;;;16.99;69.05;101315.67;126303;1099;104236;-78
2021/08/14 01:02:48;;;;;;;20.90;7.40;;;;;;;16.97;69.82;101314.73;126320;1099;104226;-79
2021/08/14 01:05:19;;;;;;;23.47;7.67;;;;;;;16.94;69.67;101317.30;126334;1099;104156;-78
2021/08/14 01:07:51;;;;;;;16.43;6.60;;;;;;;16.92;69.23;101314.63;126285;1099;104133;-77
2021/08/14 01:10:26;;;;;;;17.83;7.00;;;;;;;16.89;69.41;101315.47;126239;1099;104175;-80
2021/08/14 01:12:57;;;;;;;17.43;7.03;;;;;;;16.87;69.72;101317.16;126328;1099;104143;-78
2021/08/14 01:15:28;;;;;;;16.63;7.13;;;;;;;16.85;70.10;101310.91;126284;1099;104165;-78
2021/08/14 01:18:00;;;;;;;18.27;6.47;;;;;;;16.83;69.85;101312.64;126314;1099;104178;-79
2021/08/14 01:20:32;;;;;;;16.07;6.63;;;;;;;16.79;70.15;101310.77;126238;1099;104156;-79
2021/08/14 01:23:05;;;;;;;17.27;7.20;;;;;;;16.78;70.08;101314.30;126328;1099;104184;-79
2021/08/14 01:25:40;;;;;;;15.80;6.83;;;;;;;16.76;69.49;101313.34;126324;1098;104178;-79
2021/08/14 01:28:11;;;;;;;;;;;;;;;16.74;69.58;101309.78;126326;1099;104181;-78
2021/08/14 01:30:43;;;;;;;18.00;6.97;;;;;;;16.73;70.00;101313.27;126285;1099;104165;-78
2021/08/14 01:33:14;;;;;;;17.93;7.07;;;;;;;16.74;70.30;101303.59;126374;1099;104258;-78
2021/08/14 01:35:48;;;;;;;18.00;7.37;;;;;;;16.74;70.59;101301.83;126258;1099;104153;-77
2021/08/14 01:38:18;;;;;;;18.85;7.67;;;;;;;16.70;70.10;101306.17;126312;1099;104140;-79
2021/08/14 01:40:58;;;;;;;19.37;7.07;;;;;;;16.67;70.67;101303.45;126278;1099;104161;-79
2021/08/14 01:43:29;;;;;;;18.83;7.17;;;;;;;16.65;70.15;101296.31;126370;1099;104171;-78
2021/08/14 01:46:02;;;;;;;17.77;6.80;;;;;;;16.62;70.83;101302.42;126320;1099;104189;-78
2021/08/14 01:48:32;;;;;;;18.82;7.40;;;;;;;16.60;71.28;101305.92;126327;1099;104165;-78
2021/08/14 01:51:03;;;;;;;16.63;6.93;;;;;;;16.59;70.67;101301.47;126283;1099;104144;-78
2021/08/14 01:53:34;;;;;;;19.70;7.10;;;;;;;16.59;70.80;101306.77;126238;1099;104288;-78
2021/08/14 01:56:06;;;;;;;17.40;6.67;;;;;;;16.58;71.25;101305.88;126312;1099;104220;-78
2021/08/14 01:58:38;;;;;;;14.53;6.30;;;;;;;16.58;70.77;101305.88;126243;1099;104319;-79
2021/08/14 02:01:08;;;;;;;19.63;6.67;;;;;;;16.57;71.20;101309.38;126282;1099;104242;-78
2021/08/14 02:03:40;;;;;;;17.70;7.40;;;;;;;16.54;71.73;101309.30;126344;1099;104201;-77
2021/08/14 02:06:13;;;;;;;17.10;7.42;;;;;;;16.50;71.06;101300.39;126313;1099;104225;-77
2021/08/14 02:08:51;;;;;;;19.80;6.73;;;;;;;16.49;71.13;101305.66;126356;1099;104149;-78
2021/08/14 02:11:27;;;;;;;18.13;6.93;;;;;;;16.49;70.92;101309.19;126306;1098;104734;-78
2021/08/14 02:13:59;;;;;;;16.33;6.90;;;;;;;16.46;70.98;101311.77;126297;1099;104229;-77
2021/08/14 02:16:30;;;;;;;19.43;7.03;;;;;;;16.45;71.71;101314.38;126330;1099;104159;-78
2021/08/14 02:19:04;;;;;;;18.45;7.08;;;;;;;16.42;71.62;101319.59;126319;1099;104181;-77
2021/08/14 02:21:38;;;;;;;19.93;7.20;;;;;;;16.39;71.09;101311.58;126288;1099;104144;-78
2021/08/14 02:24:09;;;;;;;18.80;7.33;;;;;;;16.38;71.95;101315.98;126299;1099;104210;-78
2021/08/14 02:26:41;;;;;;;18.37;7.40;;;;;;;16.38;71.65;101301.83;126258;1099;104998;-77
2021/08/14 02:29:15;;;;;;;14.03;6.47;;;;;;;16.38;71.47;101307.13;126320;1098;104233;-78
2021/08/14 02:31:47;;;;;;;18.27;7.30;;;;;;;16.37;71.98;101306.23;126277;1099;104140;-78
2021/08/14 02:34:21;;;;;;;14.70;6.20;;;;;;;16.38;72.11;101305.39;126388;1099;104175;-77
2021/08/14 02:36:52;;;;;;;15.07;6.87;;;;;;;16.39;71.43;101306.28;126337;1099;104213;-77
2021/08/14 02:39:24;;;;;;;16.10;7.43;;;;;;;16.39;72.21;101308.92;126286;1099;104329;-77
2021/08/14 02:41:55;;;;;;;19.93;7.30;;;;;;;16.37;71.44;101313.30;126207;1099;104197;-78
2021/08/14 02:44:26;;;;;;;18.70;7.37;;;;;;;16.33;72.19;101313.22;126258;1099;104169;-79
2021/08/14 02:46:59;;;;;;;17.35;7.37;;;;;;;16.32;72.48;101307.88;126333;1099;104235;-78
2021/08/14 02:49:30;;;;;;;17.60;7.23;;;;;;;16.29;71.73;101303.40;126332;1099;104246;-78
2021/08/14 02:52:01;;;;;;;16.67;6.73;;;;;;;16.25;72.21;101304.20;125781;1099;104207;-78
2021/08/14 02:54:33;;;;;;;15.57;7.27;;;;;;;16.23;72.40;101302.36;126305;1098;104294;-78
2021/08/14 02:57:04;;;;;;;20.27;6.90;;;;;;;16.22;71.92;101297.91;126364;1099;104195;-79
2021/08/14 02:59:35;;;;;;;16.17;6.57;;;;;;;16.22;71.97;101303.20;126378;1099;104697;-78
2021/08/14 03:02:06;;;;;;;17.43;6.80;;;;;;;16.20;71.56;101302.28;126161;1099;104229;-78
2021/08/14 03:04:36;;;;;;;18.20;6.87;;;;;;;16.17;71.78;101298.70;126264;1099;104153;-78
2021/08/14 03:07:10;;;;;;;15.70;6.53;;;;;;;16.17;72.01;101293.41;126351;1099;104149;-77
2021/08/14 03:09:42;;;;;;;15.93;7.17;;;;;;;16.17;72.60;101296.06;126300;1099;104268;-78
2021/08/14 03:12:12;;;;;;;19.73;7.10;;;;;;;16.15;72.42;101292.45;126291;1099;105483;-78
2021/08/14 03:14:44;;;;;;;15.77;6.80;;;;;;;16.12;72.62;101299.43;126325;1099;104216;-78
2021/08/14 03:17:15;;;;;;;16.73;6.60;;;;;;;16.08;72.03;101295.82;126313;1099;104325;-78
2021/08/14 03:19:46;;;;;;;20.13;7.30;;;;;;;16.07;72.87;101307.25;126321;1099;104185;-77
2021/08/14 03:22:16;;;;;;;17.37;7.03;;;;;;;16.04;73.39;101286.00;126285;1099;104280;-78
2021/08/14 03:24:47;;;;;;;16.73;6.87;;;;;;;16.04;73.46;101301.00;126340;1099;104293;-78
2021/08/14 03:27:18;;;;;;;17.20;6.70;;;;;;;16.04;73.20;101306.29;126269;1099;104194;-78
2021/08/14 03:29:51;;;;;;;14.83;7.03;;;;;;;16.03;72.43;101299.19;126320;1099;104312;-76
2021/08/14 03:32:23;;;;;;;15.10;6.87;;;;;;;16.04;72.69;101304.53;126295;1099;104271;-79
2021/08/14 03:34:57;;;;;;;19.37;7.00;;;;;;;16.07;73.58;101295.78;126325;1099;104255;-78
2021/08/14 03:37:27;;;;;;;18.00;7.20;;;;;;;16.08;73.31;101302.84;126347;1099;104198;-78
2021/08/14 03:39:59;;;;;;;19.50;6.80;;;;;;;16.08;73.37;101313.44;125307;1102;104214;-77
2021/08/14 03:42:30;;;;;;;15.20;6.83;;;;;;;16.09;72.94;101294.95;125218;1102;104666;-77
2021/08/14 03:45:04;;;;;;;16.33;6.50;;;;;;;16.11;72.82;101302.92;125237;1099;104476;-78
2021/08/14 03:47:35;;;;;;;16.83;6.50;;;;;;;16.14;73.58;101306.57;125293;1102;104194;-79
2021/08/14 03:50:09;;;;;;;18.43;6.67;;;;;;;16.17;72.89;101304.00;125383;1099;104239;-77
2021/08/14 03:52:40;;;;;;;15.35;6.37;;;;;;;16.20;73.04;101303.16;125266;1099;104166;-78
2021/08/14 03:55:13;;;;;;;18.77;7.43;;;;;;;16.23;72.92;101307.66;125303;1099;104152;-79
2021/08/14 03:57:46;;;;;;;18.40;7.77;;;;;;;16.24;73.64;101306.81;125269;1099;104627;-79
2021/08/14 04:00:19;;;;;;;15.40;6.53;;;;;;;16.25;72.88;101303.28;125266;1099;104265;-78
2021/08/14 04:02:50;;;;;;;16.80;6.90;;;;;;;16.27;73.46;101309.53;125221;1099;104312;-78
2021/08/14 04:05:21;;;;;;;14.97;6.30;;;;;;;16.32;72.85;101303.47;125259;1101;104194;-78
2021/08/14 04:07:53;;;;;;;15.23;6.90;;;;;;;16.36;73.39;101299.14;125278;1102;104182;-78
2021/08/14 04:10:23;;;;;;;14.67;7.00;;;;;;;16.39;73.18;101300.98;125219;1102;104204;-78
2021/08/14 04:12:54;;;;;;;15.65;6.70;;;;;;;16.42;73.72;101304.59;125518;1099;104152;-79
2021/08/14 04:15:26;;;;;;;17.50;6.67;;;;;;;16.46;73.09;101298.52;126217;1099;104415;-78
2021/08/14 04:18:01;;;;;;;16.43;6.50;;;;;;;16.47;73.61;101302.97;126203;1099;104294;-79
2021/08/14 04:20:32;;;;;;;14.85;6.28;;;;;;;16.47;73.50;101302.97;126166;1098;104195;-78
2021/08/14 04:23:04;;;;;;;;;;;;;;;16.50;73.08;101297.75;125860;1099;104341;-79
2021/08/14 04:25:34;;;;;;;16.47;7.07;;;;;;;16.52;73.12;101300.44;125271;1099;104312;-79
2021/08/14 04:28:05;;;;;;;14.55;6.45;;;;;;;16.56;72.92;101304.04;125295;1099;104201;-79
2021/08/14 04:30:36;;;;;;;11.60;6.20;;;;;;;16.60;73.60;101288.25;125345;1099;104219;-78
2021/08/14 04:33:07;;;;;;;14.77;6.57;;;;;;;16.66;73.16;101290.16;125460;1099;102329;-77
2021/08/14 04:35:37;;;;;;;15.60;6.37;;;;;;;16.69;73.01;101285.82;126182;1099;104219;-77
2021/08/14 04:38:08;;;;;;;16.90;6.53;;;;;;;16.74;72.96;101292.99;126344;1099;104190;-79
2021/08/14 04:40:39;;;;;;;17.83;7.07;;;;;;;16.77;73.03;101287.77;126369;1099;104143;-78
2021/08/14 04:43:10;;;;;;;15.77;6.03;;;;;;;16.82;72.78;101294.94;126282;1099;104290;-78
2021/08/14 04:45:40;;;;;;;16.23;6.80;;;;;;;16.89;72.58;101291.61;126303;1099;104357;-79
2021/08/14 04:48:13;;;;;;;18.07;6.37;;;;;;;16.94;73.04;101293.45;126258;1099;104831;-78
2021/08/14 04:50:48;;;;;;;16.52;7.00;;;;;;;16.97;72.73;101290.87;126304;1099;104194;-78
2021/08/14 04:53:20;;;;;;;16.23;6.53;;;;;;;17.00;72.66;101283.90;126213;1099;104147;-78
2021/08/14 04:55:51;;;;;;;20.20;6.80;;;;;;;17.05;73.16;101289.30;126300;1099;104331;-78
2021/08/14 04:58:22;;;;;;;15.53;6.50;;;;;;;17.14;72.59;101285.94;126272;1099;104303;-78
2021/08/14 05:00:55;;;;;;;15.83;6.63;;;;;;;17.21;72.76;101286.09;126292;1099;104313;-79
2021/08/14 05:03:28;;;;;;;17.93;6.47;;;;;;;17.29;72.69;101280.07;126183;1099;104172;-78
2021/08/14 05:06:01;;;;;;;16.03;6.63;;;;;;;17.35;72.87;101281.08;126268;1099;104252;-78
2021/08/14 05:08:31;;;;;;;15.80;6.13;;;;;;;17.42;72.38;101276.78;126309;1099;104232;-77
2021/08/14 05:11:04;;;;;;;16.13;5.57;;;;;;;17.49;72.35;101284.02;126300;1099;104303;-78
2021/08/14 05:13:34;;;;;;;;;;;;;;;17.56;72.16;101274.41;126288;1099;104168;-78
2021/08/14 05:16:05;;;;;;;14.47;6.57;;;;;;;17.61;72.45;101278.06;126275;1099;104136;-79
2021/08/14 05:18:36;;;;;;;18.50;6.13;;;;;;;17.69;72.20;101280.87;126297;1099;104191;-79
2021/08/14 05:21:06;;;;;;;18.60;6.50;;;;;;;17.76;72.19;101282.75;126348;1099;104140;-78
2021/08/14 05:23:39;;;;;;;13.30;5.97;;;;;;;17.83;71.93;101283.78;126244;1099;104201;-76
2021/08/14 05:26:12;;;;;;;19.83;6.07;;;;;;;17.91;71.63;101277.76;126308;1097;104175;-79
2021/08/14 05:28:42;;;;;;;13.28;6.10;;;;;;;17.99;71.81;101287.63;126282;1099;104178;-78
2021/08/14 05:31:14;;;;;;;14.00;6.60;;;;;;;18.02;71.66;101282.38;126333;1098;104616;-78
2021/08/14 05:33:45;;;;;;;15.63;6.10;;;;;;;18.08;71.63;101290.45;125271;1099;104302;-78
2021/08/14 05:36:16;;;;;;;12.07;5.40;;;;;;;18.13;71.39;101286.10;125264;1099;108382;-77
2021/08/14 05:38:46;;;;;;;21.83;7.10;;;;;;;18.18;71.43;101283.53;125307;1099;104162;-78
2021/08/14 05:41:17;;;;;;;14.00;5.73;;;;;;;18.26;71.56;101285.45;125261;1102;104401;-80
2021/08/14 05:43:47;;;;;;;18.70;6.20;;;;;;;18.35;71.40;101291.78;125281;1099;104383;-78
2021/08/14 05:46:18;;;;;;;13.73;6.03;;;;;;;18.44;71.28;101278.64;125222;1102;119489;-78
2021/08/14 05:48:49;;;;;;;18.13;6.53;;;;;;;18.53;71.51;101283.19;125194;1099;104444;-79
2021/08/14 05:51:20;;;;;;;18.00;7.03;;;;;;;18.59;71.22;101281.55;125256;1100;104296;-78
2021/08/14 05:53:54;;;;;;;19.27;6.90;;;;;;;18.67;70.85;101285.20;125307;1099;104156;-78
2021/08/14 05:56:24;;;;;;;17.77;6.43;;;;;;;18.76;70.87;101284.45;125235;1099;104200;-77
2021/08/14 05:58:55;;;;;;;20.63;6.73;;;;;;;18.83;70.75;101283.66;125296;1099;104303;-78
2021/08/14 06:01:29;;;;;;;23.97;7.20;;;;;;;18.89;70.95;101287.33;125273;1099;104137;-78
2021/08/14 06:04:00;;;;;;;19.47;7.03;;;;;;;18.99;70.79;101289.22;125314;1099;104179;-78
2021/08/14 06:06:31;;;;;;;22.17;7.30;;;;;;;19.09;70.55;101290.23;126099;1099;104198;-78
2021/08/14 06:09:01;;;;;;;19.00;6.57;;;;;;;19.16;70.96;101281.47;126335;1099;104152;-77
2021/08/14 06:11:32;;;;;;;20.10;6.40;;;;;;;19.20;70.78;101285.97;126289;1099;104240;-77
2021/08/14 06:14:03;;;;;;;17.80;5.93;;;;;;;19.24;70.64;101285.11;126315;1099;104303;-79
2021/08/14 06:16:34;;;;;;;21.90;6.40;;;;;;;19.31;70.26;101280.78;126335;1099;104195;-79
2021/08/14 06:19:04;;;;;;;19.03;5.93;;;;;;;19.40;69.87;101280.89;126347;1099;104166;-78
2021/08/14 06:21:41;;;;;;;18.17;5.67;;;;;;;19.50;69.64;101285.42;126280;1099;104182;-78
2021/08/14 06:24:20;;;;;;;15.72;7.10;;;;;;;19.58;69.14;101282.85;126337;1099;104179;-78
2021/08/14 06:26:52;;;;;;;19.67;6.17;;;;;;;19.66;69.21;101280.27;126304;1098;104179;-78
2021/08/14 06:29:23;;;;;;;17.40;6.50;;;;;;;19.73;69.03;101276.81;126274;1099;104172;-77
2021/08/14 06:31:54;;;;;;;20.60;6.37;;;;;;;19.81;68.13;101287.58;126348;1099;105204;-77
2021/08/14 06:34:25;;;;;;;21.80;5.93;;;;;;;19.90;68.44;101272.58;126282;1099;104239;-78
2021/08/14 06:36:57;;;;;;;17.10;6.50;;;;;;;20.01;68.93;101267.34;126317;1099;104124;-78
2021/08/14 06:39:32;;;;;;;15.60;6.10;;;;;;;20.13;67.79;101273.66;126265;1099;104158;-78
2021/08/14 06:42:07;;;;;;;19.43;6.47;;;;;;;20.23;68.62;101275.53;126352;1099;104258;-78
2021/08/14 06:44:38;;;;;;;18.43;6.63;;;;;;;20.36;67.96;101276.52;126254;1099;104277;-78
2021/08/14 06:47:26;;;;;;;15.60;6.50;;;;;;;20.44;67.07;101273.03;126241;1099;104229;-77
2021/08/14 06:50:12;;;;;;;15.25;6.10;;;;;;;20.57;66.44;101274.01;125628;1099;104149;-78
2021/08/14 06:52:49;;;;;;;15.33;5.93;;;;;;;20.70;66.69;101268.79;126355;1099;104165;-77
2021/08/14 06:55:25;;;;;;;16.13;6.13;;;;;;;20.83;66.43;101276.88;126302;1099;103441;-79
2021/08/14 06:57:58;;;;;;;17.60;6.10;;;;;;;20.96;66.01;101269.83;126309;1099;113629;-78
2021/08/14 07:00:29;;;;;;;17.80;6.37;;;;;;;21.13;66.64;101272.58;126347;1099;104175;-78
2021/08/14 07:03:03;;;;;;;16.17;6.20;;;;;;;21.29;65.62;101272.64;126321;1099;104225;-80
2021/08/14 07:05:35;;;;;;;16.73;6.53;;;;;;;21.42;65.33;101271.78;126272;1099;104141;-77
2021/08/14 07:08:07;;;;;;;17.17;6.90;;;;;;;21.59;65.90;101276.33;126305;1099;104156;-79
2021/08/14 07:10:38;;;;;;;20.20;7.70;;;;;;;21.77;65.71;101271.02;126329;1099;104237;-78
2021/08/14 07:13:10;;;;;;;21.93;7.00;;;;;;;21.93;64.97;101274.60;126379;1099;104168;-78
2021/08/14 07:15:41;;;;;;;;;;;;;;;22.10;63.21;101273.73;126358;1099;104140;-78
2021/08/14 07:18:14;;;;;;;15.80;6.70;;;;;;;22.24;64.36;101264.81;126219;1099;104303;-79
2021/08/14 07:20:47;;;;;;;17.03;6.20;;;;;;;22.39;64.05;101260.37;126282;1099;104149;-78
2021/08/14 07:23:19;;;;;;;15.97;7.10;;;;;;;22.50;63.92;101261.27;125292;1099;104143;-78
2021/08/14 07:25:52;;;;;;;15.70;6.50;;;;;;;22.67;64.31;101268.36;125329;1099;104306;-78
2021/08/14 07:28:23;;;;;;;18.40;7.10;;;;;;;22.79;63.30;101268.33;125244;1099;119017;-78
2021/08/14 07:30:56;;;;;;;17.50;7.10;;;;;;;23.00;63.49;101274.50;125265;1099;104352;-78
2021/08/14 07:33:27;;;;;;;19.32;7.10;;;;;;;23.22;62.65;101270.89;125272;1099;105762;-78
2021/08/14 07:36:08;;;;;;;16.80;6.43;;;;;;;23.40;62.25;101271.70;125272;1099;104315;-78
2021/08/14 07:38:41;;;;;;;18.87;6.90;;;;;;;23.51;62.32;101273.44;125246;1100;104284;-78
2021/08/14 07:41:11;;;;;;;16.10;6.40;;;;;;;23.57;62.70;101269.81;125262;1099;104413;-78
2021/08/14 07:43:42;;;;;;;18.50;7.60;;;;;;;23.71;61.89;101269.73;125272;1097;104310;-78
2021/08/14 07:46:14;;;;;;;18.40;6.50;;;;;;;23.79;61.26;101267.87;125314;1099;104165;-78
2021/08/14 07:48:45;;;;;;;16.73;6.70;;;;;;;23.92;61.12;101263.38;125290;1099;104210;-79
2021/08/14 07:51:15;;;;;;;21.60;7.03;;;;;;;24.03;61.01;101264.17;125329;1099;104149;-79
2021/08/14 07:53:46;;;;;;;19.65;6.55;;;;;;;24.20;60.39;101264.04;125279;1099;104445;-78
2021/08/14 07:56:16;;;;;;;16.87;6.73;;;;;;;24.47;60.16;101266.48;126174;1099;104364;-80
2021/08/14 07:58:47;;;;;;;22.60;6.67;;;;;;;24.65;59.37;101269.02;126164;1099;104249;-79
2021/08/14 08:01:18;;;;;;;20.43;6.73;;;;;;;24.74;59.01;101268.92;126281;1099;104146;-79
2021/08/14 08:03:49;;;;;;;21.97;8.30;;;;;;;24.87;58.57;101263.39;125253;1099;104964;-78
2021/08/14 08:06:20;;;;;;;18.90;6.63;;;;;;;25.03;57.97;101262.31;125286;1099;104605;-77
2021/08/14 08:08:52;;;;;;;19.13;6.10;;;;;;;25.22;58.29;101256.72;125226;1099;104335;-80
2021/08/14 08:11:23;;;;;;;18.90;6.40;;;;;;;25.37;57.32;101263.70;125266;1099;104200;-79
2021/08/14 08:13:55;;;;;;;20.77;6.63;;;;;;;25.58;56.93;101262.52;125273;1099;104241;-77
2021/08/14 08:16:25;;;;;;;11.37;4.97;;;;;;;25.70;55.42;101264.16;125246;1102;104630;-78
2021/08/14 08:18:59;;;;;;;11.37;4.43;;;;;;;25.75;55.09;101255.09;125271;1099;104296;-80
2021/08/14 08:21:29;;;;;;;11.93;4.70;;;;;;;25.90;53.02;101250.37;125323;1099;104149;-78
2021/08/14 08:24:00;;;;;;;9.57;4.50;;;;;;;26.04;52.37;101259.16;125315;1102;104332;-77
2021/08/14 08:26:41;;;;;;;13.13;5.07;;;;;;;26.17;51.67;101254.45;125257;1099;104144;-79
2021/08/14 08:29:20;;;;;;;10.23;4.77;;;;;;;26.17;51.71;101249.08;125218;1102;104967;-79
2021/08/14 08:31:52;;;;;;;9.70;4.43;;;;;;;26.21;51.07;101244.52;125320;1099;104197;-80
2021/08/14 08:34:24;;;;;;;8.00;4.20;;;;;;;26.18;50.81;101245.48;125330;1099;104554;-78
2021/08/14 08:36:55;;;;;;;11.37;4.50;;;;;;;26.23;50.45;101242.72;126298;1099;104195;-77
2021/08/14 08:39:31;;;;;;;9.67;4.33;;;;;;;26.20;49.95;101243.65;126277;1098;104195;-78
2021/08/14 08:42:04;;;;;;;14.28;4.55;;;;;;;26.19;49.02;101237.39;126307;1099;104162;-79
2021/08/14 08:44:35;;;;;;;9.33;4.33;;;;;;;26.28;49.37;101241.70;126316;1098;104143;-77
2021/08/14 08:47:08;;;;;;;12.67;4.40;;;;;;;26.32;46.96;101242.55;126321;1099;104194;-78
2021/08/14 08:49:50;;;;;;;8.10;3.73;;;;;;;26.45;47.58;101240.52;126199;1099;104139;-78
2021/08/14 08:52:21;;;;;;;11.03;4.80;;;;;;;26.54;47.77;101237.66;126263;1099;104695;-78
2021/08/14 08:54:56;;;;;;;7.97;4.40;;;;;;;26.36;47.13;101234.38;126286;1099;104264;-78
2021/08/14 08:57:28;;;;;;;9.60;4.30;;;;;;;26.39;46.57;101229.87;126278;1099;104209;-77
2021/08/14 09:00:00;;;;;;;8.87;4.37;;;;;;;26.34;46.70;101229.95;126250;1099;104380;-77
2021/08/14 09:02:35;;;;;;;10.83;4.23;;;;;;;26.29;46.09;101221.09;126323;1099;104149;-78
2021/08/14 09:05:24;;;;;;;11.27;4.40;;;;;;;26.24;45.84;101231.02;126340;1099;104165;-77
2021/08/14 09:07:55;;;;;;;9.70;4.67;;;;;;;26.22;45.00;101231.05;126304;1099;104197;-78
2021/08/14 09:10:27;;;;;;;8.90;4.20;;;;;;;26.33;44.76;101233.55;126235;1099;104246;-78
2021/08/14 09:12:57;;;;;;;9.40;4.40;;;;;;;26.45;44.18;101229.76;126322;1099;104177;-78
2021/08/14 09:15:32;;;;;;;6.33;4.20;;;;;;;26.54;44.10;101224.20;126278;1099;104274;-78
2021/08/14 09:18:08;;;;;;;7.33;4.20;;;;;;;26.67;43.44;101222.19;126312;1099;104293;-77
2021/08/14 09:20:49;;;;;;;10.73;4.43;;;;;;;26.81;43.39;101219.22;126309;1099;104146;-78
2021/08/14 09:23:20;;;;;;;7.63;4.13;;;;;;;26.90;43.35;101216.34;126258;1099;104184;-78
2021/08/14 09:25:58;;;;;;;7.33;3.83;;;;;;;26.97;42.33;101217.09;126319;1099;104647;-78
2021/08/14 09:28:33;;;;;;;7.97;4.37;;;;;;;27.07;42.32;101224.06;126359;1098;104437;-77
2021/08/14 09:31:06;;;;;;;10.63;4.63;;;;;;;27.04;40.81;101221.44;126299;1098;104143;-77
2021/08/14 09:33:37;;;;;;;10.48;4.35;;;;;;;27.05;41.36;101217.80;126352;1099;104149;-79
2021/08/14 09:36:10;;;;;;;12.03;4.60;;;;;;;27.05;41.59;101213.32;126356;1099;104172;-78
2021/08/14 09:38:43;;;;;;;10.13;4.20;;;;;;;26.99;41.86;101218.84;126311;1099;104185;-78
2021/08/14 09:41:17;;;;;;;11.33;4.50;;;;;;;26.90;41.79;101214.52;126336;1099;104656;-78
2021/08/14 09:43:50;;;;;;;9.78;5.17;;;;;;;26.95;41.44;101210.86;126320;1099;104287;-78
2021/08/14 09:46:21;;;;;;;8.98;4.62;;;;;;;27.01;41.14;101208.03;126335;1099;104144;-78
2021/08/14 09:48:57;;;;;;;9.93;4.63;;;;;;;27.10;41.70;101210.53;126320;1099;104130;-78
2021/08/14 09:51:31;;;;;;;10.80;4.85;;;;;;;27.13;40.50;101210.47;126249;1099;108352;-77
2021/08/14 09:54:01;;;;;;;;;;;;;;;27.11;39.22;101197.94;126368;1099;104278;-78
2021/08/14 09:56:34;;;;;;;9.20;4.77;;;;;;;27.18;40.59;101203.16;126350;1099;104159;-78
2021/08/14 09:59:04;;;;;;;;;;;;;;;27.30;40.81;101203.80;125433;1099;104290;-77
2021/08/14 10:01:38;;;;;;;9.90;4.27;;;;;;;27.37;41.08;101192.87;126227;1099;104133;-78
2021/08/14 10:04:11;;;;;;;10.67;4.90;;;;;;;27.44;40.66;101201.70;126251;1098;104136;-78
2021/08/14 10:06:45;;;;;;;10.05;4.55;;;;;;;27.46;39.67;101198.96;126312;1099;104165;-77
2021/08/14 10:09:15;;;;;;;;;;;;;;;27.49;39.44;101186.33;126299;1099;104165;-78
2021/08/14 10:11:47;;;;;;;12.60;5.00;;;;;;;27.57;39.68;101189.71;126301;1099;104153;-77
2021/08/14 10:14:20;;;;;;;10.17;4.50;;;;;;;27.58;39.39;101179.80;126371;1099;104176;-78
2021/08/14 10:16:53;;;;;;;11.47;4.77;;;;;;;27.60;39.52;101184.25;126309;1099;104226;-78
2021/08/14 10:19:34;;;;;;;8.90;4.50;;;;;;;27.57;38.30;101187.02;126334;1099;104146;-78
2021/08/14 10:22:09;;;;;;;9.53;4.30;;;;;;;27.53;37.63;101177.22;126209;1099;110586;-77
2021/08/14 10:24:42;;;;;;;8.93;4.33;;;;;;;27.59;37.72;101176.20;126348;1099;104137;-77
2021/08/14 10:27:15;;;;;;;9.43;5.00;;;;;;;27.74;38.29;101170.43;126334;1098;104279;-78
2021/08/14 10:29:48;;;;;;;9.43;4.40;;;;;;;27.90;38.68;101170.91;126307;1099;104394;-77
2021/08/14 10:32:41;;;;;;;10.58;4.55;;;;;;;28.05;38.49;101163.38;126404;1099;104165;-78
2021/08/14 10:35:36;;;;;;;11.80;5.10;;;;;;;28.24;38.06;101167.36;126328;1099;104281;-78
2021/08/14 10:38:40;;;;;;;8.33;4.47;;;;;;;28.25;37.74;101161.05;126267;1099;104139;-78
2021/08/14 10:41:12;;;;;;;8.50;4.30;;;;;;;28.22;37.75;101160.22;126182;1099;104159;-78
2021/08/14 10:44:03;;;;;;;11.07;4.47;;;;;;;28.14;37.37;101153.24;126311;1099;104168;-77
2021/08/14 10:46:51;;;;;;;12.10;4.80;;;;;;;28.15;37.26;101154.12;126349;1098;104181;-76
2021/08/14 10:49:46;;;;;;;10.67;4.33;;;;;;;27.91;36.98;101153.82;126311;1099;104165;-77
2021/08/14 10:52:19;;;;;;;9.43;4.73;;;;;;;27.70;37.10;101151.67;126264;1099;104699;-78
2021/08/14 10:55:14;;;;;;;9.93;4.50;;;;;;;27.75;37.23;101145.25;126345;1099;104217;-78
2021/08/14 10:57:50;;;;;;;11.30;4.97;;;;;;;27.88;37.16;101140.41;126305;1099;104325;-78
2021/08/14 11:00:27;;;;;;;10.40;4.47;;;;;;;27.95;37.84;101141.16;126273;1099;104219;-78
2021/08/14 11:03:03;;;;;;;8.87;4.43;;;;;;;28.01;37.21;101142.83;126315;1099;111191;-78
2021/08/14 11:05:35;;;;;;;9.90;4.57;;;;;;;27.96;37.12;101138.43;126336;1099;104259;-78
2021/08/14 11:08:31;;;;;;;11.80;4.90;;;;;;;27.91;37.02;101140.34;126328;1099;104206;-77
2021/08/14 11:11:02;;;;;;;8.00;4.50;;;;;;;27.90;36.49;101133.16;125191;1099;104329;-78
2021/08/14 11:13:43;;;;;;;9.10;4.33;;;;;;;27.91;36.56;101132.25;125256;1102;104149;-77
2021/08/14 11:16:47;;;;;;;8.33;4.60;;;;;;;27.94;37.18;101132.16;125298;1102;104813;-78
2021/08/14 11:19:47;;;;;;;8.80;4.67;;;;;;;28.02;36.92;101131.99;125319;1102;104188;-78
2021/08/14 11:22:25;;;;;;;13.20;4.90;;;;;;;28.03;36.78;101130.17;125226;1099;104232;-78
2021/08/14 11:24:57;;;;;;;8.37;4.60;;;;;;;28.05;37.01;101122.91;125234;1099;104418;-77
2021/08/14 11:27:30;;;;;;;9.27;4.47;;;;;;;28.13;37.21;101119.09;125267;1099;104117;-77
2021/08/14 11:30:04;;;;;;;11.17;4.80;;;;;;;28.15;37.29;101119.05;125210;1099;104522;-78
2021/08/14 11:32:36;;;;;;;8.65;4.65;;;;;;;28.19;37.01;101115.34;125239;1099;104367;-78